createdAt,value
2022-08-12T00:00:01.766Z,101034.09
2022-08-12T00:02:47.245Z,101030.19
2022-08-12T00:05:35.204Z,101034.78
2022-08-12T00:08:28.949Z,101022.25
2022-08-12T00:11:22.250Z,101030.66
2022-08-12T00:14:07.663Z,101025.44
2022-08-12T00:16:53.482Z,101028.41
2022-08-12T00:19:38.815Z,101025.91
2022-08-12T00:22:24.138Z,101023.28
2022-08-12T00:25:17.254Z,101022.56
2022-08-12T00:28:03.991Z,101019.19
2022-08-12T00:30:49.730Z,101022.59
2022-08-12T00:33:51.634Z,101014.63
2022-08-12T00:36:43.738Z,101009.91
2022-08-12T00:39:30.713Z,101011.56
2022-08-12T00:42:11.117Z,101009.13
2022-08-12T00:44:41.126Z,101000.59
2022-08-12T00:47:24.574Z,101012.56
2022-08-12T00:49:54.800Z,101011.22
2022-08-12T00:52:24.248Z,101007.19
2022-08-12T00:54:54.392Z,101004.06
2022-08-12T00:57:26.562Z,101006.66
2022-08-12T00:59:58.276Z,101015.91
2022-08-12T01:02:28.889Z,101007.63
2022-08-12T01:05:16.330Z,101002.06
2022-08-12T01:08:02.801Z,101005.19
2022-08-12T01:10:51.145Z,101007.34
2022-08-12T01:13:22.147Z,101007.59
2022-08-12T01:15:53.321Z,101008.09
2022-08-12T01:18:23.354Z,100998.78
2022-08-12T01:21:00.736Z,101006.34
2022-08-12T01:24:29.455Z,101005.94
2022-08-12T01:26:56.981Z,101002.06
2022-08-12T01:29:28.614Z,101001.63
2022-08-12T01:32:05.139Z,101003.59
2022-08-12T01:34:37.454Z,100999.19
2022-08-12T01:37:08.229Z,101005.91
2022-08-12T01:40:36.250Z,100997.31
2022-08-12T01:42:34.923Z,101004.34
2022-08-12T01:45:06.281Z,100997.75
2022-08-12T01:47:43.058Z,100997.91
2022-08-12T01:50:21.899Z,101000.31
2022-08-12T01:52:59.077Z,100997.63
2022-08-12T01:55:29.733Z,100999.75
2022-08-12T01:58:11.611Z,100990.88
2022-08-12T02:00:54.802Z,100995.31
2022-08-12T02:04:02.408Z,100989.56
2022-08-12T02:06:52.955Z,100992.13
2022-08-12T02:09:47.491Z,100988.41
2022-08-12T02:12:27.918Z,100980.66
2022-08-12T02:15:22.177Z,100989.19
2022-08-12T02:17:57.053Z,100984.56
2022-08-12T02:20:48.873Z,100990.34
2022-08-12T02:23:21.559Z,100993.84
2022-08-12T02:25:55.527Z,100993.50
2022-08-12T02:28:23.678Z,100980.97
2022-08-12T02:30:53.585Z,100980.34
2022-08-12T02:33:22.474Z,100975.97
2022-08-12T02:35:51.556Z,100974.47
2022-08-12T02:38:21.263Z,100976.69
2022-08-12T02:40:54.267Z,100974.81
2022-08-12T02:43:28.214Z,100970.13
2022-08-12T02:46:01.874Z,100973.59
2022-08-12T02:48:32.246Z,100971.25
2022-08-12T02:51:05.278Z,100976.97
2022-08-12T02:53:34.291Z,100984.28
2022-08-12T02:56:03.790Z,100989.41
2022-08-12T02:58:33.361Z,100980.63
2022-08-12T03:01:05.445Z,100982.84
2022-08-12T03:03:35.338Z,100987.66
2022-08-12T03:06:08.186Z,100989.41
2022-08-12T03:08:41.128Z,100984.13
2022-08-12T03:11:16.409Z,100978.50
2022-08-12T03:13:52.907Z,100981.66
2022-08-12T03:16:22.335Z,100982.41
2022-08-12T03:18:51.543Z,100985.97
2022-08-12T03:21:55.484Z,100980.25
2022-08-12T03:24:09.510Z,100985.44
2022-08-12T03:26:38.506Z,100983.38
2022-08-12T03:29:07.800Z,100979.22
2022-08-12T03:31:36.955Z,100984.34
2022-08-12T03:34:07.576Z,100983.38
2022-08-12T03:36:37.397Z,100983.09
2022-08-12T03:39:35.914Z,100983.88
2022-08-12T03:42:14.702Z,100978.69
2022-08-12T03:45:11.540Z,100981.16
2022-08-12T03:48:13.311Z,100971.19
2022-08-12T03:51:05.400Z,100975.34
2022-08-12T03:53:50.877Z,100972.28
2022-08-12T03:56:36.163Z,100968.50
2022-08-12T03:59:24.506Z,100974.22
2022-08-12T04:01:57.207Z,100965.47
2022-08-12T04:04:33.910Z,100975.69
2022-08-12T04:07:03.332Z,100967.47
2022-08-12T04:09:31.809Z,100970.66
2022-08-12T04:12:17.105Z,100964.00
2022-08-12T04:14:45.459Z,100971.00
2022-08-12T04:17:14.367Z,100978.91
2022-08-12T04:19:43.919Z,100977.28
2022-08-12T04:22:12.500Z,100966.84
2022-08-12T04:24:41.605Z,100968.63
2022-08-12T04:27:11.203Z,100970.47
2022-08-12T04:30:21.052Z,100962.63
2022-08-12T04:32:28.149Z,100973.41
2022-08-12T04:34:57.349Z,100968.75
2022-08-12T04:37:25.104Z,100969.88
2022-08-12T04:39:54.106Z,100962.63
2022-08-12T04:42:22.125Z,100965.84
2022-08-12T04:44:49.923Z,100967.31
2022-08-12T04:47:18.416Z,100969.09
2022-08-12T04:49:48.089Z,100976.84
2022-08-12T04:52:17.950Z,100977.56
2022-08-12T04:54:46.254Z,100973.72
2022-08-12T04:57:14.000Z,100971.25
2022-08-12T04:59:47.750Z,100966.31
2022-08-12T05:02:21.515Z,100963.16
2022-08-12T05:04:52.722Z,100970.88
2022-08-12T05:07:24.141Z,100966.63
2022-08-12T05:10:00.161Z,100968.72
2022-08-12T05:12:34.288Z,100970.44
2022-08-12T05:15:01.942Z,100982.84
2022-08-12T05:17:29.689Z,100971.69
2022-08-12T05:19:58.150Z,100967.75
2022-08-12T05:22:27.634Z,100970.34
2022-08-12T05:24:55.793Z,100972.06
2022-08-12T05:27:23.644Z,100975.47
2022-08-12T05:30:05.621Z,100980.41
2022-08-12T05:32:37.425Z,100974.66
2022-08-12T05:35:08.172Z,100981.53
2022-08-12T05:37:37.610Z,100989.91
2022-08-12T05:40:10.986Z,100989.66
2022-08-12T05:42:38.987Z,100986.44
2022-08-12T05:45:08.001Z,100992.78
2022-08-12T05:47:53.619Z,100996.56
2022-08-12T05:50:22.310Z,100999.16
2022-08-12T05:52:53.851Z,100999.47
2022-08-12T05:55:24.185Z,101004.06
2022-08-12T05:57:55.321Z,100997.34
2022-08-12T06:00:25.460Z,101004.41
2022-08-12T06:02:56.435Z,100996.50
2022-08-12T06:05:24.585Z,100993.50
2022-08-12T06:08:02.328Z,100999.84
2022-08-12T06:10:32.916Z,100993.63
2022-08-12T06:13:02.519Z,100998.50
2022-08-12T06:15:31.388Z,100999.34
2022-08-12T06:18:13.792Z,100996.81
2022-08-12T06:20:43.826Z,100992.81
2022-08-12T06:23:15.277Z,101000.31
2022-08-12T06:25:43.556Z,100998.06
2022-08-12T06:28:17.434Z,100997.72
2022-08-12T06:30:53.056Z,100989.00
2022-08-12T06:33:55.345Z,101003.16
2022-08-12T06:36:22.656Z,101012.16
2022-08-12T06:38:52.414Z,100999.31
2022-08-12T06:41:37.815Z,101005.34
2022-08-12T06:44:08.994Z,101006.59
2022-08-12T06:46:38.687Z,101005.91
2022-08-12T06:49:06.844Z,101001.09
2022-08-12T06:51:34.738Z,101007.63
2022-08-12T06:54:04.077Z,101006.59
2022-08-12T06:57:02.403Z,101008.97
2022-08-12T06:59:21.185Z,100999.72
2022-08-12T07:01:51.186Z,101003.69
2022-08-12T07:04:37.378Z,101001.06
2022-08-12T07:07:07.123Z,101001.09
2022-08-12T07:10:04.157Z,101003.25
2022-08-12T07:12:26.598Z,101003.47
2022-08-12T07:14:56.675Z,101008.38
2022-08-12T07:17:24.460Z,101005.41
2022-08-12T07:19:53.745Z,101005.00
2022-08-12T07:22:23.272Z,101004.59
2022-08-12T07:25:12.598Z,101008.50
2022-08-12T07:27:42.573Z,101008.06
2022-08-12T07:30:11.679Z,101002.56
2022-08-12T07:32:40.239Z,100990.88
2022-08-12T07:35:08.798Z,100999.25
2022-08-12T07:37:42.582Z,100999.00
2022-08-12T07:40:13.254Z,101002.44
2022-08-12T07:42:43.593Z,101002.94
2022-08-12T07:45:13.538Z,100995.41
2022-08-12T07:47:43.219Z,100996.13
2022-08-12T07:50:11.878Z,100993.47
2022-08-12T07:52:42.639Z,100988.66
2022-08-12T07:55:13.024Z,100991.53
2022-08-12T07:57:52.034Z,100996.38
2022-08-12T08:00:20.769Z,101001.47
2022-08-12T08:02:49.295Z,101001.00
2022-08-12T08:05:17.535Z,100999.50
2022-08-12T08:07:45.293Z,101001.53
2022-08-12T08:10:16.637Z,100989.88
2022-08-12T08:12:56.278Z,100993.75
2022-08-12T08:15:44.523Z,100994.03
2022-08-12T08:18:26.654Z,100995.56
2022-08-12T08:20:56.299Z,100988.13
2022-08-12T08:23:46.367Z,100987.66
2022-08-12T08:26:16.393Z,100986.91
2022-08-12T08:28:44.304Z,100986.84
2022-08-12T08:31:13.420Z,100988.91
2022-08-12T08:34:09.140Z,100994.09
2022-08-12T08:36:29.605Z,100988.00
2022-08-12T08:38:58.539Z,100984.53
2022-08-12T08:42:15.317Z,100983.69
2022-08-12T08:44:36.362Z,100980.34
2022-08-12T08:47:05.572Z,100981.06
2022-08-12T08:49:37.446Z,100979.09
2022-08-12T08:52:07.122Z,100972.91
2022-08-12T08:54:35.095Z,100976.63
2022-08-12T08:57:07.962Z,100984.31
2022-08-12T08:59:36.031Z,100984.06
2022-08-12T09:02:03.891Z,100986.44
2022-08-12T09:05:12.244Z,100972.31
2022-08-12T09:07:58.972Z,100980.38
2022-08-12T09:13:23.198Z,100971.19
2022-08-12T09:15:55.854Z,100969.00
2022-08-12T09:18:33.311Z,100968.38
2022-08-12T09:21:02.780Z,100959.09
2022-08-12T09:26:22.762Z,100954.47
2022-08-12T09:28:58.071Z,100951.47
2022-08-12T09:32:06.831Z,100954.16
2022-08-12T09:34:25.933Z,100944.66
2022-08-12T09:37:00.376Z,100942.16
2022-08-12T09:40:01.670Z,100932.16
2022-08-12T09:42:44.634Z,100942.59
2022-08-12T09:46:05.500Z,100937.28
2022-08-12T09:48:19.984Z,100942.41
2022-08-12T09:50:52.185Z,100937.59
2022-08-12T09:53:36.187Z,100937.81
2022-08-12T09:56:59.257Z,100937.16
2022-08-12T09:59:00.110Z,100931.44
2022-08-12T10:01:35.380Z,100933.75
2022-08-12T10:04:19.679Z,100931.84
2022-08-12T10:06:54.690Z,100921.03
2022-08-12T10:09:28.451Z,100924.88
2022-08-12T10:12:31.626Z,100929.09
2022-08-12T10:15:01.205Z,100922.72
2022-08-12T10:17:30.748Z,100922.72
2022-08-12T10:19:59.781Z,100918.69
2022-08-12T10:22:36.463Z,100917.41
2022-08-12T10:26:18.426Z,100912.97
2022-08-12T10:28:32.072Z,100909.13
2022-08-12T10:30:59.843Z,100909.34
2022-08-12T10:33:32.364Z,100905.75
2022-08-12T10:36:01.820Z,100907.41
2022-08-12T10:38:36.134Z,100894.28
2022-08-12T10:41:56.927Z,100906.16
2022-08-12T10:44:17.493Z,100887.19
2022-08-12T10:46:49.076Z,100889.53
2022-08-12T10:50:03.268Z,100882.19
2022-08-12T10:52:34.597Z,100881.41
2022-08-12T10:54:56.444Z,100876.31
2022-08-12T10:58:13.018Z,100876.78
2022-08-12T11:00:34.631Z,100871.38
2022-08-12T11:04:22.338Z,100862.25
2022-08-12T11:07:09.012Z,100867.75
2022-08-12T11:08:42.949Z,100861.84
2022-08-12T11:11:27.794Z,100856.22
2022-08-12T11:14:05.669Z,100843.84
2022-08-12T11:16:33.863Z,100855.06
2022-08-12T11:19:03.206Z,100850.41
2022-08-12T11:21:57.794Z,100847.03
2022-08-12T11:24:30.310Z,100850.63
2022-08-12T11:27:07.462Z,100851.94
2022-08-12T11:30:01.868Z,100857.78
2022-08-12T11:32:25.298Z,100851.78
2022-08-12T11:34:55.141Z,100850.66
2022-08-12T11:37:26.287Z,100838.97
2022-08-12T11:42:35.204Z,100835.19
2022-08-12T11:45:03.885Z,100831.56
2022-08-12T11:47:32.913Z,100826.47
2022-08-12T11:50:01.312Z,100831.78
2022-08-12T11:52:55.981Z,100832.69
2022-08-12T11:55:18.630Z,100829.19
2022-08-12T11:58:40.645Z,100830.25
2022-08-12T12:03:40.418Z,100823.78
2022-08-12T12:06:16.864Z,100812.84
2022-08-12T12:08:51.598Z,100810.84
2022-08-12T12:11:21.814Z,100819.81
2022-08-12T12:14:08.774Z,100817.09
2022-08-12T12:16:39.584Z,100824.16
2022-08-12T12:19:10.052Z,100814.22
2022-08-12T12:21:46.999Z,100812.97
2022-08-12T12:24:21.237Z,100811.56
2022-08-12T12:27:00.133Z,100804.00
2022-08-12T12:30:19.725Z,100809.16
2022-08-12T12:32:18.636Z,100807.00
2022-08-12T12:35:14.054Z,100801.28
2022-08-12T12:38:04.999Z,100801.22
2022-08-12T12:40:29.934Z,100810.53
2022-08-12T12:43:00.504Z,100807.72
2022-08-12T12:45:33.241Z,100806.25
2022-08-12T12:48:02.976Z,100797.25
2022-08-12T12:50:35.780Z,100789.88
2022-08-12T12:54:05.753Z,100796.63
2022-08-12T12:56:01.785Z,100798.34
2022-08-12T12:58:29.559Z,100791.81
2022-08-12T13:01:04.621Z,100783.03
2022-08-12T13:03:48.694Z,100782.50
2022-08-12T13:06:19.079Z,100779.53
2022-08-12T13:08:48.940Z,100782.91
2022-08-12T13:11:21.186Z,100774.34
2022-08-12T13:14:06.972Z,100769.13
2022-08-12T13:16:43.957Z,100760.09
2022-08-12T13:19:12.362Z,100770.53
2022-08-12T13:22:03.888Z,100765.78
2022-08-12T13:24:33.477Z,100762.31
2022-08-12T13:27:02.606Z,100758.03
2022-08-12T13:29:32.894Z,100755.31
2022-08-12T13:32:18.564Z,100745.38
2022-08-12T13:34:52.714Z,100748.03
2022-08-12T13:37:43.645Z,100741.63
2022-08-12T13:40:19.659Z,100731.63
2022-08-12T13:42:51.084Z,100734.44
2022-08-12T13:45:18.936Z,100726.50
2022-08-12T13:47:55.938Z,100725.56
2022-08-12T13:50:26.746Z,100717.16
2022-08-12T13:52:54.592Z,100715.28
2022-08-12T13:55:30.767Z,100706.41
2022-08-12T13:58:01.713Z,100703.50
2022-08-12T14:00:34.019Z,100703.75
2022-08-12T14:03:06.348Z,100710.97
2022-08-12T14:05:38.968Z,100705.56
2022-08-12T14:08:08.523Z,100716.03
2022-08-12T14:10:38.862Z,100704.75
2022-08-12T14:14:04.174Z,100706.13
2022-08-12T14:16:14.376Z,100711.75
2022-08-12T14:18:44.814Z,100715.88
2022-08-12T14:21:18.398Z,100712.25
2022-08-12T14:24:01.990Z,100709.09
2022-08-12T14:26:33.663Z,100705.22
2022-08-12T14:29:02.766Z,100707.84
2022-08-12T14:31:31.775Z,100706.03
2022-08-12T14:34:00.344Z,100713.78
2022-08-12T14:36:32.978Z,100699.00
2022-08-12T14:39:06.065Z,100705.78
2022-08-12T14:41:36.470Z,100696.25
2022-08-12T14:44:58.120Z,100697.63
2022-08-12T14:46:56.906Z,100699.22
2022-08-12T14:50:01.182Z,100691.72
2022-08-12T14:53:23.997Z,100696.69
2022-08-12T14:57:56.882Z,100690.50
2022-08-12T15:00:52.577Z,100679.81
2022-08-12T15:03:23.187Z,100686.88
2022-08-12T15:06:05.058Z,100694.13
2022-08-12T15:08:40.975Z,100691.94
2022-08-12T15:11:13.599Z,100685.81
2022-08-12T15:13:45.415Z,100684.03
2022-08-12T15:16:18.703Z,100682.00
2022-08-12T15:18:54.958Z,100679.78
2022-08-12T15:21:25.221Z,100681.16
2022-08-12T15:24:12.921Z,100679.91
2022-08-12T15:26:42.348Z,100676.84
2022-08-12T15:29:10.560Z,100669.25
2022-08-12T15:31:59.846Z,100671.97
2022-08-12T15:34:30.876Z,100670.09
2022-08-12T15:36:58.696Z,100675.13
2022-08-12T15:39:27.926Z,100682.38
2022-08-12T15:41:56.750Z,100673.06
2022-08-12T15:44:38.109Z,100673.06
2022-08-12T15:47:10.911Z,100680.63
2022-08-12T15:49:54.861Z,100678.69
2022-08-12T15:52:28.377Z,100677.25
2022-08-12T15:54:58.785Z,100667.81
2022-08-12T15:57:27.136Z,100664.31
2022-08-12T16:00:04.603Z,100655.63
2022-08-12T16:02:49.412Z,100652.06
2022-08-12T16:06:13.211Z,100649.22
2022-08-12T16:08:17.107Z,100654.38
2022-08-12T16:10:46.492Z,100638.56
2022-08-12T16:13:18.218Z,100652.00
2022-08-12T16:16:03.279Z,100647.31
2022-08-12T16:18:35.575Z,100642.00
2022-08-12T16:21:04.904Z,100643.22
2022-08-12T16:23:52.093Z,100641.03
2022-08-12T16:26:27.316Z,100641.44
2022-08-12T16:29:14.669Z,100638.66
2022-08-12T16:31:42.644Z,100642.38
2022-08-12T16:34:39.966Z,100637.19
2022-08-12T16:37:07.274Z,100630.22
2022-08-12T16:39:59.792Z,100637.44
2022-08-12T16:42:28.189Z,100639.00
2022-08-12T16:44:57.442Z,100637.91
2022-08-12T16:47:27.170Z,100632.41
2022-08-12T16:49:57.839Z,100625.88
2022-08-12T16:52:25.669Z,100630.00
2022-08-12T16:54:54.880Z,100628.59
2022-08-12T16:57:34.898Z,100630.19
2022-08-12T17:00:04.481Z,100631.38
2022-08-12T17:02:35.353Z,100633.22
2022-08-12T17:05:05.615Z,100628.97
2022-08-12T17:07:38.169Z,100633.81
2022-08-12T17:10:12.881Z,100629.50
2022-08-12T17:12:40.938Z,100623.88
2022-08-12T17:15:51.000Z,100631.63
2022-08-12T17:18:39.398Z,100622.09
2022-08-12T17:20:49.250Z,100617.00
2022-08-12T17:23:19.337Z,100621.19
2022-08-12T17:25:50.368Z,100625.25
2022-08-12T17:28:19.920Z,100616.47
2022-08-12T17:30:59.461Z,100618.88
2022-08-12T17:33:33.421Z,100613.59
2022-08-12T17:36:05.793Z,100610.75
2022-08-12T17:38:35.052Z,100611.03
2022-08-12T17:41:21.537Z,100618.28
2022-08-12T17:43:58.526Z,100613.84
2022-08-12T17:46:32.175Z,100610.06
2022-08-12T17:49:06.901Z,100607.63
2022-08-12T17:52:02.903Z,100606.25
2022-08-12T17:54:31.474Z,100606.94
2022-08-12T17:57:01.379Z,100608.66
2022-08-12T17:59:48.587Z,100609.13
2022-08-12T18:02:30.041Z,100611.75
2022-08-12T18:05:09.440Z,100613.50
2022-08-12T18:07:39.906Z,100614.94
2022-08-12T18:10:09.050Z,100622.69
2022-08-12T18:12:47.151Z,100622.84
2022-08-12T18:15:26.792Z,100620.78
2022-08-12T18:18:17.478Z,100617.63
2022-08-12T18:20:47.622Z,100615.16
2022-08-12T18:23:24.401Z,100620.03
2022-08-12T18:26:17.559Z,100620.94
2022-08-12T18:28:48.329Z,100618.78
2022-08-12T18:31:18.172Z,100620.31
2022-08-12T18:33:47.221Z,100625.53
2022-08-12T18:36:22.429Z,100627.66
2022-08-12T18:38:56.084Z,100622.78
2022-08-12T18:41:32.080Z,100622.41
2022-08-12T18:44:05.317Z,100626.06
2022-08-12T18:46:53.471Z,100628.38
2022-08-12T18:49:30.372Z,100630.81
2022-08-12T18:52:04.341Z,100626.22
2022-08-12T18:54:37.472Z,100633.88
2022-08-12T18:57:19.975Z,100632.81
2022-08-12T19:00:07.002Z,100632.19
2022-08-12T19:02:40.371Z,100635.16
2022-08-12T19:05:10.900Z,100630.69
2022-08-12T19:07:58.099Z,100632.81
2022-08-12T19:10:31.929Z,100628.56
2022-08-12T19:13:23.836Z,100639.19
2022-08-12T19:15:53.364Z,100639.38
2022-08-12T19:18:22.083Z,100643.13
2022-08-12T19:20:50.707Z,100650.94
2022-08-12T19:23:21.308Z,100644.28
2022-08-12T19:26:01.024Z,100643.28
2022-08-12T19:28:35.205Z,100644.34
2022-08-12T19:31:56.444Z,100650.69
2022-08-12T19:37:18.342Z,100657.28
2022-08-12T19:40:09.017Z,100648.44
2022-08-12T19:42:41.838Z,100655.59
2022-08-12T19:45:14.810Z,100663.19
2022-08-12T19:47:44.733Z,100657.31
2022-08-12T19:50:14.807Z,100659.88
2022-08-12T19:52:53.055Z,100668.75
2022-08-12T19:55:23.256Z,100674.66
2022-08-12T19:58:02.396Z,100673.84
2022-08-12T20:00:35.910Z,100682.69
2022-08-12T20:03:06.222Z,100676.66
2022-08-12T20:06:04.905Z,100676.53
2022-08-12T20:08:31.472Z,100676.66
2022-08-12T20:12:12.661Z,100684.91
2022-08-12T20:14:00.644Z,100683.75
2022-08-12T20:16:53.227Z,100686.53
2022-08-12T20:19:17.666Z,100688.69
2022-08-12T20:21:45.661Z,100698.25
2022-08-12T20:24:14.790Z,100694.78
2022-08-12T20:26:43.662Z,100706.41
2022-08-12T20:29:14.501Z,100704.69
2022-08-12T20:31:44.809Z,100704.09
2022-08-12T20:34:12.727Z,100709.84
2022-08-12T20:36:44.254Z,100706.38
2022-08-12T20:39:37.394Z,100704.47
2022-08-12T20:42:07.807Z,100697.22
2022-08-12T20:44:39.904Z,100702.88
2022-08-12T20:47:17.900Z,100702.31
2022-08-12T20:49:55.363Z,100705.06
2022-08-12T20:52:29.055Z,100708.09
2022-08-12T20:54:58.301Z,100704.75
2022-08-12T20:57:37.432Z,100712.97
2022-08-12T21:00:17.986Z,100714.84
2022-08-12T21:02:50.579Z,100704.38
2022-08-12T21:06:09.458Z,100713.06
2022-08-12T21:08:26.522Z,100720.13
2022-08-12T21:10:59.174Z,100713.00
2022-08-12T21:13:29.469Z,100717.84
2022-08-12T21:16:10.007Z,100710.41
2022-08-12T21:18:38.378Z,100718.53
2022-08-12T21:21:06.728Z,100715.13
2022-08-12T21:23:50.799Z,100718.53
2022-08-12T21:26:19.737Z,100719.00
2022-08-12T21:28:58.382Z,100710.97
2022-08-12T21:32:40.335Z,100713.81
2022-08-12T21:34:21.413Z,100711.19
2022-08-12T21:36:53.863Z,100716.97
2022-08-12T21:39:27.827Z,100716.59
2022-08-12T21:42:06.975Z,100717.22
2022-08-12T21:45:47.216Z,100721.72
2022-08-12T21:47:26.339Z,100720.38
2022-08-12T21:50:02.983Z,100725.47
2022-08-12T21:52:35.841Z,100729.38
2022-08-12T21:55:08.310Z,100728.19
2022-08-12T21:57:51.152Z,100729.78
2022-08-12T22:00:32.364Z,100723.59
2022-08-12T22:04:01.794Z,100720.56
2022-08-12T22:06:30.547Z,100714.97
2022-08-12T22:09:16.078Z,100721.44
2022-08-12T22:11:49.032Z,100726.38
2022-08-12T22:14:24.592Z,100726.97
2022-08-12T22:16:55.667Z,100727.00
2022-08-12T22:19:24.975Z,100723.25
2022-08-12T22:21:56.281Z,100725.34
2022-08-12T22:24:29.965Z,100725.03
2022-08-12T22:26:59.654Z,100728.97
2022-08-12T22:30:03.761Z,100725.06
2022-08-12T22:32:31.534Z,100724.41
2022-08-12T22:35:22.238Z,100729.22
2022-08-12T22:37:53.590Z,100728.69
2022-08-12T22:40:23.983Z,100733.31
2022-08-12T22:43:15.595Z,100722.72
2022-08-12T22:46:01.427Z,100728.19
2022-08-12T22:48:29.177Z,100721.03
2022-08-12T22:51:00.069Z,100727.66
2022-08-12T22:53:36.278Z,100725.78
2022-08-12T22:56:06.841Z,100720.31
2022-08-12T22:58:40.197Z,100718.25
2022-08-12T23:01:10.658Z,100724.91
2022-08-12T23:03:47.143Z,100716.03
2022-08-12T23:06:19.803Z,100713.97
2022-08-12T23:08:48.371Z,100710.09
2022-08-12T23:11:17.141Z,100713.13
2022-08-12T23:13:49.062Z,100709.03
2022-08-12T23:16:28.848Z,100712.59
2022-08-12T23:19:09.367Z,100707.34
2022-08-12T23:22:04.870Z,100707.66
2022-08-12T23:24:35.378Z,100714.81
2022-08-12T23:27:21.752Z,100710.72
2022-08-12T23:30:17.555Z,100713.41
2022-08-12T23:32:37.737Z,100706.34
2022-08-12T23:35:07.848Z,100695.78
2022-08-12T23:37:47.196Z,100697.81
2022-08-12T23:40:22.288Z,100697.31
2022-08-12T23:42:54.854Z,100696.25
2022-08-12T23:45:33.780Z,100693.19
2022-08-12T23:48:03.001Z,100685.47
2022-08-12T23:50:34.289Z,100692.34
2022-08-12T23:53:06.671Z,100682.94
2022-08-12T23:55:45.584Z,100686.31
2022-08-12T23:58:21.222Z,100686.47
